sensor_id;sensor_type;location;lat;lon;timestamp;pressure;altitude;pressure_sealevel;temperature;humidity
69848;BME280;57143;55.940;37.496;2023-08-24T00:00:58;98809.09;;;15.23;100.00
69848;BME280;57143;55.940;37.496;2023-08-24T00:03:26;98808.53;;;15.16;100.00
69848;BME280;57143;55.940;37.496;2023-08-24T00:05:54;98821.38;;;15.26;100.00
69848;BME280;57143;55.940;37.496;2023-08-24T00:08:21;98839.13;;;15.23;100.00
69848;BME280;57143;55.940;37.496;2023-08-24T00:10:49;98858.25;;;15.28;100.00
69848;BME280;57143;55.940;37.496;2023-08-24T00:13:16;98842.63;;;15.08;100.00
69848;BME280;57143;55.940;37.496;2023-08-24T00:15:45;98873.78;;;15.23;100.00
69848;BME280;57143;55.940;37.496;2023-08-24T00:18:12;98875.69;;;15.22;100.00
69848;BME280;57143;55.940;37.496;2023-08-24T00:20:39;98885.00;;;15.21;100.00
69848;BME280;57143;55.940;37.496;2023-08-24T00:23:07;98883.09;;;15.22;100.00
69848;BME280;57143;55.940;37.496;2023-08-24T00:25:34;98899.94;;;15.08;100.00
69848;BME280;57143;55.940;37.496;2023-08-24T00:28:01;98902.72;;;15.19;100.00
69848;BME280;57143;55.940;37.496;2023-08-24T00:30:29;98890.44;;;15.16;100.00
69848;BME280;57143;55.940;37.496;2023-08-24T00:32:57;98913.41;;;15.25;100.00
69848;BME280;57143;55.940;37.496;2023-08-24T00:35:25;98917.16;;;15.14;100.00
69848;BME280;57143;55.940;37.496;2023-08-24T00:37:52;98912.84;;;15.23;100.00
69848;BME280;57143;55.940;37.496;2023-08-24T00:40:19;98922.41;;;15.26;100.00
69848;BME280;57143;55.940;37.496;2023-08-24T00:42:47;98919.13;;;15.24;100.00
69848;BME280;57143;55.940;37.496;2023-08-24T00:45:14;98921.03;;;15.23;100.00
69848;BME280;57143;55.940;37.496;2023-08-24T00:47:43;98899.66;;;15.05;100.00
69848;BME280;57143;55.940;37.496;2023-08-24T00:50:12;98907.56;;;15.06;100.00
69848;BME280;57143;55.940;37.496;2023-08-24T00:52:41;98914.41;;;15.09;100.00
69848;BME280;57143;55.940;37.496;2023-08-24T00:55:09;98915.00;;;15.16;100.00
69848;BME280;57143;55.940;37.496;2023-08-24T00:57:37;98917.44;;;15.13;100.00
69848;BME280;57143;55.940;37.496;2023-08-24T01:00:06;98903.50;;;15.09;100.00
69848;BME280;57143;55.940;37.496;2023-08-24T01:02:35;98893.91;;;15.01;100.00
69848;BME280;57143;55.940;37.496;2023-08-24T01:05:03;98912.22;;;15.06;100.00
69848;BME280;57143;55.940;37.496;2023-08-24T01:07:35;98895.81;;;15.01;100.00
69848;BME280;57143;55.940;37.496;2023-08-24T01:10:05;98883.78;;;14.97;100.00
69848;BME280;57143;55.940;37.496;2023-08-24T01:12:43;98894.16;;;14.95;100.00
69848;BME280;57143;55.940;37.496;2023-08-24T01:15:17;98902.09;;;15.01;100.00
69848;BME280;57143;55.940;37.496;2023-08-24T01:17:47;98895.00;;;15.00;100.00
69848;BME280;57143;55.940;37.496;2023-08-24T01:20:17;98884.09;;;15.00;100.00
69848;BME280;57143;55.940;37.496;2023-08-24T01:22:55;98882.41;;;14.94;100.00
69848;BME280;57143;55.940;37.496;2023-08-24T01:25:32;98889.22;;;14.92;100.00
69848;BME280;57143;55.940;37.496;2023-08-24T01:28:03;98889.78;;;14.94;100.00
69848;BME280;57143;55.940;37.496;2023-08-24T01:30:33;98875.00;;;14.85;100.00
69848;BME280;57143;55.940;37.496;2023-08-24T01:33:02;98891.91;;;14.82;100.00
69848;BME280;57143;55.940;37.496;2023-08-24T01:35:30;98891.34;;;14.80;100.00
69848;BME280;57143;55.940;37.496;2023-08-24T01:37:58;98869.44;;;14.65;100.00
69848;BME280;57143;55.940;37.496;2023-08-24T01:40:35;98913.22;;;14.90;100.00
69848;BME280;57143;55.940;37.496;2023-08-24T01:43:07;98888.31;;;14.76;100.00
69848;BME280;57143;55.940;37.496;2023-08-24T01:45:37;98910.75;;;14.88;100.00
69848;BME280;57143;55.940;37.496;2023-08-24T01:48:09;98908.03;;;14.88;100.00
69848;BME280;57143;55.940;37.496;2023-08-24T01:50:37;98907.16;;;14.83;100.00
69848;BME280;57143;55.940;37.496;2023-08-24T01:53:05;98910.41;;;14.75;100.00
69848;BME280;57143;55.940;37.496;2023-08-24T01:55:32;98895.03;;;14.59;100.00
69848;BME280;57143;55.940;37.496;2023-08-24T01:58:00;98924.50;;;14.62;100.00
69848;BME280;57143;55.940;37.496;2023-08-24T02:00:28;98915.78;;;14.60;100.00
69848;BME280;57143;55.940;37.496;2023-08-24T02:02:56;98910.81;;;14.57;100.00
69848;BME280;57143;55.940;37.496;2023-08-24T02:05:23;98907.53;;;14.55;100.00
69848;BME280;57143;55.940;37.496;2023-08-24T02:07:53;98910.31;;;14.60;100.00
69848;BME280;57143;55.940;37.496;2023-08-24T02:10:20;98922.06;;;14.65;100.00
69848;BME280;57143;55.940;37.496;2023-08-24T02:12:48;98907.53;;;14.55;100.00
69848;BME280;57143;55.940;37.496;2023-08-24T02:15:15;98927.25;;;14.67;100.00
69848;BME280;57143;55.940;37.496;2023-08-24T02:17:44;98912.28;;;14.69;100.00
69848;BME280;57143;55.940;37.496;2023-08-24T02:20:11;98928.56;;;14.54;100.00
69848;BME280;57143;55.940;37.496;2023-08-24T02:22:38;98930.22;;;14.60;100.00
69848;BME280;57143;55.940;37.496;2023-08-24T02:25:06;98919.78;;;14.47;100.00
69848;BME280;57143;55.940;37.496;2023-08-24T02:27:33;98936.44;;;14.51;100.00
69848;BME280;57143;55.940;37.496;2023-08-24T02:30:01;98952.25;;;14.54;100.00
69848;BME280;57143;55.940;37.496;2023-08-24T02:32:31;98936.69;;;14.49;100.00
69848;BME280;57143;55.940;37.496;2023-08-24T02:35:00;98936.13;;;14.47;100.00
69848;BME280;57143;55.940;37.496;2023-08-24T02:37:28;98959.56;;;14.48;100.00
69848;BME280;57143;55.940;37.496;2023-08-24T02:39:56;98955.78;;;14.49;100.00
69848;BME280;57143;55.940;37.496;2023-08-24T02:42:23;98936.13;;;14.47;100.00
69848;BME280;57143;55.940;37.496;2023-08-24T02:44:50;98953.34;;;14.53;100.00
69848;BME280;57143;55.940;37.496;2023-08-24T02:47:17;98961.88;;;14.61;100.00
69848;BME280;57143;55.940;37.496;2023-08-24T02:49:44;98965.25;;;14.42;100.00
69848;BME280;57143;55.940;37.496;2023-08-24T02:52:13;98973.16;;;14.43;100.00
69848;BME280;57143;55.940;37.496;2023-08-24T02:54:40;98966.66;;;14.44;100.00
69848;BME280;57143;55.940;37.496;2023-08-24T02:57:07;98967.69;;;14.38;100.00
69848;BME280;57143;55.940;37.496;2023-08-24T02:59:35;98960.06;;;14.40;100.00
69848;BME280;57143;55.940;37.496;2023-08-24T03:02:02;98969.31;;;14.39;100.00
69848;BME280;57143;55.940;37.496;2023-08-24T03:04:30;98959.56;;;14.48;100.00
69848;BME280;57143;55.940;37.496;2023-08-24T03:06:57;98975.78;;;14.60;100.00
69848;BME280;57143;55.940;37.496;2023-08-24T03:09:26;98974.97;;;14.64;100.00
69848;BME280;57143;55.940;37.496;2023-08-24T03:11:53;98974.19;;;14.69;100.00
69848;BME280;57143;55.940;37.496;2023-08-24T03:14:20;98978.59;;;14.75;100.00
69848;BME280;57143;55.940;37.496;2023-08-24T03:16:47;98984.84;;;14.70;100.00
69848;BME280;57143;55.940;37.496;2023-08-24T03:19:14;98985.94;;;14.69;100.00
69848;BME280;57143;55.940;37.496;2023-08-24T03:21:43;98981.56;;;14.68;100.00
69848;BME280;57143;55.940;37.496;2023-08-24T03:24:11;98986.94;;;14.63;100.00
69848;BME280;57143;55.940;37.496;2023-08-24T03:26:39;98979.84;;;14.57;100.00
69848;BME280;57143;55.940;37.496;2023-08-24T03:29:07;98977.00;;;14.42;100.00
69848;BME280;57143;55.940;37.496;2023-08-24T03:31:34;98972.19;;;14.54;100.00
69848;BME280;57143;55.940;37.496;2023-08-24T03:34:01;98991.56;;;14.58;100.00
69848;BME280;57143;55.940;37.496;2023-08-24T03:36:29;99002.78;;;14.61;100.00
69848;BME280;57143;55.940;37.496;2023-08-24T03:38:56;99004.72;;;14.66;100.00
69848;BME280;57143;55.940;37.496;2023-08-24T03:41:23;99004.47;;;14.67;100.00
69848;BME280;57143;55.940;37.496;2023-08-24T03:43:52;98990.81;;;14.67;100.00
69848;BME280;57143;55.940;37.496;2023-08-24T03:46:19;99000.97;;;14.72;100.00
69848;BME280;57143;55.940;37.496;2023-08-24T03:48:46;98996.31;;;14.72;100.00
69848;BME280;57143;55.940;37.496;2023-08-24T03:51:13;99008.63;;;14.75;100.00
69848;BME280;57143;55.940;37.496;2023-08-24T03:53:41;98999.50;;;14.59;100.00
69848;BME280;57143;55.940;37.496;2023-08-24T03:56:08;98991.41;;;14.43;100.00
69848;BME280;57143;55.940;37.496;2023-08-24T03:58:35;98988.19;;;14.46;100.00
69848;BME280;57143;55.940;37.496;2023-08-24T04:01:04;98999.16;;;14.51;100.00
69848;BME280;57143;55.940;37.496;2023-08-24T04:03:32;99009.09;;;14.35;100.00
69848;BME280;57143;55.940;37.496;2023-08-24T04:05:59;99001.38;;;14.27;100.00
69848;BME280;57143;55.940;37.496;2023-08-24T04:08:27;98984.59;;;14.14;100.00
69848;BME280;57143;55.940;37.496;2023-08-24T04:10:54;98986.56;;;14.18;100.00
69848;BME280;57143;55.940;37.496;2023-08-24T04:13:21;98995.34;;;14.25;100.00
69848;BME280;57143;55.940;37.496;2023-08-24T04:15:48;98977.50;;;14.13;100.00
69848;BME280;57143;55.940;37.496;2023-08-24T04:18:17;98935.03;;;13.90;100.00
69848;BME280;57143;55.940;37.496;2023-08-24T04:20:44;98948.50;;;14.28;100.00
69848;BME280;57143;55.940;37.496;2023-08-24T04:23:12;98925.59;;;14.29;100.00
69848;BME280;57143;55.940;37.496;2023-08-24T04:25:40;98904.56;;;14.25;100.00
69848;BME280;57143;55.940;37.496;2023-08-24T04:28:08;98885.13;;;14.16;100.00
69848;BME280;57143;55.940;37.496;2023-08-24T04:30:35;98898.38;;;14.34;100.00
69848;BME280;57143;55.940;37.496;2023-08-24T04:33:04;98907.16;;;14.41;100.00
69848;BME280;57143;55.940;37.496;2023-08-24T04:35:35;98916.75;;;14.44;100.00
69848;BME280;57143;55.940;37.496;2023-08-24T04:38:03;98924.97;;;14.49;100.00
69848;BME280;57143;55.940;37.496;2023-08-24T04:40:30;98934.16;;;14.43;100.00
69848;BME280;57143;55.940;37.496;2023-08-24T04:42:57;98946.78;;;14.49;100.00
69848;BME280;57143;55.940;37.496;2023-08-24T04:45:24;98955.19;;;14.42;100.00
69848;BME280;57143;55.940;37.496;2023-08-24T04:47:51;98948.78;;;14.27;100.00
69848;BME280;57143;55.940;37.496;2023-08-24T04:50:18;98959.69;;;14.27;100.00
69848;BME280;57143;55.940;37.496;2023-08-24T04:52:47;98979.75;;;14.21;100.00
69848;BME280;57143;55.940;37.496;2023-08-24T04:55:14;98989.00;;;14.20;100.00
69848;BME280;57143;55.940;37.496;2023-08-24T04:57:42;98988.63;;;14.33;100.00
69848;BME280;57143;55.940;37.496;2023-08-24T05:00:10;98993.34;;;14.42;100.00
69848;BME280;57143;55.940;37.496;2023-08-24T05:02:42;98993.75;;;14.29;100.00
69848;BME280;57143;55.940;37.496;2023-08-24T05:05:09;99000.59;;;14.32;100.00
69848;BME280;57143;55.940;37.496;2023-08-24T05:07:38;99001.22;;;14.39;100.00
69848;BME280;57143;55.940;37.496;2023-08-24T05:10:07;98992.69;;;14.30;100.00
69848;BME280;57143;55.940;37.496;2023-08-24T05:12:34;99017.63;;;14.44;100.00
69848;BME280;57143;55.940;37.496;2023-08-24T05:15:02;99021.69;;;14.41;100.00
69848;BME280;57143;55.940;37.496;2023-08-24T05:17:31;99015.16;;;14.42;100.00
69848;BME280;57143;55.940;37.496;2023-08-24T05:19:58;99035.13;;;14.48;100.00
69848;BME280;57143;55.940;37.496;2023-08-24T05:22:26;99035.34;;;14.46;100.00
69848;BME280;57143;55.940;37.496;2023-08-24T05:24:53;99037.03;;;14.47;100.00
69848;BME280;57143;55.940;37.496;2023-08-24T05:27:22;99047.97;;;14.52;100.00
69848;BME280;57143;55.940;37.496;2023-08-24T05:29:49;99035.03;;;14.43;100.00
69848;BME280;57143;55.940;37.496;2023-08-24T05:32:17;99058.63;;;14.54;100.00
69848;BME280;57143;55.940;37.496;2023-08-24T05:34:45;99051.47;;;14.48;100.00
69848;BME280;57143;55.940;37.496;2023-08-24T05:37:12;99050.38;;;14.49;100.00
69848;BME280;57143;55.940;37.496;2023-08-24T05:39:39;99049.78;;;14.42;100.00
69848;BME280;57143;55.940;37.496;2023-08-24T05:42:08;99052.47;;;14.37;100.00
69848;BME280;57143;55.940;37.496;2023-08-24T05:44:37;99057.16;;;14.20;100.00
69848;BME280;57143;55.940;37.496;2023-08-24T05:47:05;99052.72;;;14.14;100.00
69848;BME280;57143;55.940;37.496;2023-08-24T05:49:36;99059.19;;;14.08;100.00
69848;BME280;57143;55.940;37.496;2023-08-24T05:52:04;99058.94;;;14.09;100.00
69848;BME280;57143;55.940;37.496;2023-08-24T05:54:31;99056.84;;;14.16;100.00
69848;BME280;57143;55.940;37.496;2023-08-24T05:56:59;99055.25;;;14.20;100.00
69848;BME280;57143;55.940;37.496;2023-08-24T05:59:27;99060.72;;;14.20;100.00
69848;BME280;57143;55.940;37.496;2023-08-24T06:01:56;99058.22;;;14.19;100.00
69848;BME280;57143;55.940;37.496;2023-08-24T06:04:23;99060.44;;;14.22;100.00
69848;BME280;57143;55.940;37.496;2023-08-24T06:06:51;99075.28;;;14.31;100.00
69848;BME280;57143;55.940;37.496;2023-08-24T06:09:18;99083.91;;;14.44;100.00
69848;BME280;57143;55.940;37.496;2023-08-24T06:11:45;99079.59;;;14.53;100.00
69848;BME280;57143;55.940;37.496;2023-08-24T06:14:13;99082.13;;;14.33;100.00
69848;BME280;57143;55.940;37.496;2023-08-24T06:16:41;99094.69;;;14.13;100.00
69848;BME280;57143;55.940;37.496;2023-08-24T06:19:10;99074.09;;;14.22;100.00
69848;BME280;57143;55.940;37.496;2023-08-24T06:21:37;99099.16;;;14.45;100.00
69848;BME280;57143;55.940;37.496;2023-08-24T06:24:04;99099.66;;;14.69;100.00
69848;BME280;57143;55.940;37.496;2023-08-24T06:26:31;99101.22;;;14.33;100.00
69848;BME280;57143;55.940;37.496;2023-08-24T06:28:59;99094.69;;;14.61;100.00
69848;BME280;57143;55.940;37.496;2023-08-24T06:31:26;99102.44;;;14.74;100.00
69848;BME280;57143;55.940;37.496;2023-08-24T06:33:56;99107.63;;;14.75;100.00
69848;BME280;57143;55.940;37.496;2023-08-24T06:36:25;99078.06;;;14.62;100.00
69848;BME280;57143;55.940;37.496;2023-08-24T06:38:52;99112.25;;;14.70;100.00
69848;BME280;57143;55.940;37.496;2023-08-24T06:41:19;99105.81;;;14.54;100.00
69848;BME280;57143;55.940;37.496;2023-08-24T06:43:47;99105.84;;;14.33;100.00
69848;BME280;57143;55.940;37.496;2023-08-24T06:46:14;99109.97;;;14.35;100.00
69848;BME280;57143;55.940;37.496;2023-08-24T06:48:41;99112.91;;;14.29;100.00
69848;BME280;57143;55.940;37.496;2023-08-24T06:51:10;99101.59;;;14.20;100.00
69848;BME280;57143;55.940;37.496;2023-08-24T06:53:39;99115.88;;;14.54;100.00
69848;BME280;57143;55.940;37.496;2023-08-24T06:56:08;99115.41;;;14.62;100.00
69848;BME280;57143;55.940;37.496;2023-08-24T06:58:35;99114.91;;;14.65;100.00
69848;BME280;57143;55.940;37.496;2023-08-24T07:01:04;99126.59;;;14.60;100.00
69848;BME280;57143;55.940;37.496;2023-08-24T07:03:33;99126.91;;;14.64;100.00
69848;BME280;57143;55.940;37.496;2023-08-24T07:06:00;99127.63;;;14.54;100.00
69848;BME280;57143;55.940;37.496;2023-08-24T07:08:28;99123.50;;;14.52;100.00
69848;BME280;57143;55.940;37.496;2023-08-24T07:10:57;99118.09;;;14.57;100.00
69848;BME280;57143;55.940;37.496;2023-08-24T07:13:24;99136.13;;;14.58;100.00
69848;BME280;57143;55.940;37.496;2023-08-24T07:15:52;99126.22;;;14.52;100.00
69848;BME280;57143;55.940;37.496;2023-08-24T07:18:21;99129.47;;;14.49;100.00
69848;BME280;57143;55.940;37.496;2023-08-24T07:20:48;99136.81;;;14.48;100.00
69848;BME280;57143;55.940;37.496;2023-08-24T07:23:15;99129.72;;;14.47;100.00
69848;BME280;57143;55.940;37.496;2023-08-24T07:25:42;99142.81;;;14.72;100.00
69848;BME280;57143;55.940;37.496;2023-08-24T07:28:11;99132.09;;;14.65;100.00
69848;BME280;57143;55.940;37.496;2023-08-24T07:30:38;99143.41;;;14.79;100.00
69848;BME280;57143;55.940;37.496;2023-08-24T07:33:06;99127.16;;;14.89;100.00
69848;BME280;57143;55.940;37.496;2023-08-24T07:35:33;99150.06;;;15.20;100.00
69848;BME280;57143;55.940;37.496;2023-08-24T07:38:00;99156.94;;;15.59;100.00
69848;BME280;57143;55.940;37.496;2023-08-24T07:40:28;99129.34;;;15.60;100.00
69848;BME280;57143;55.940;37.496;2023-08-24T07:42:55;99158.59;;;15.28;100.00
69848;BME280;57143;55.940;37.496;2023-08-24T07:45:24;99155.88;;;15.28;100.00
69848;BME280;57143;55.940;37.496;2023-08-24T07:47:51;99151.91;;;15.41;100.00
69848;BME280;57143;55.940;37.496;2023-08-24T07:50:19;99167.34;;;15.30;100.00
69848;BME280;57143;55.940;37.496;2023-08-24T07:52:48;99152.38;;;15.01;100.00
69848;BME280;57143;55.940;37.496;2023-08-24T07:55:15;99158.00;;;14.94;100.00
69848;BME280;57143;55.940;37.496;2023-08-24T07:57:43;99154.97;;;14.91;100.00
69848;BME280;57143;55.940;37.496;2023-08-24T08:00:14;99169.81;;;15.00;100.00
69848;BME280;57143;55.940;37.496;2023-08-24T08:02:44;99168.09;;;14.89;100.00
69848;BME280;57143;55.940;37.496;2023-08-24T08:05:11;99166.06;;;14.79;100.00
69848;BME280;57143;55.940;37.496;2023-08-24T08:07:39;99152.47;;;14.84;100.00
69848;BME280;57143;55.940;37.496;2023-08-24T08:10:06;99166.75;;;14.65;100.00
69848;BME280;57143;55.940;37.496;2023-08-24T08:12:35;99170.94;;;14.77;100.00
69848;BME280;57143;55.940;37.496;2023-08-24T08:15:03;99170.94;;;14.77;100.00
69848;BME280;57143;55.940;37.496;2023-08-24T08:17:33;99169.41;;;14.60;100.00
69848;BME280;57143;55.940;37.496;2023-08-24T08:20:02;99170.84;;;14.41;100.00
69848;BME280;57143;55.940;37.496;2023-08-24T08:22:32;99166.22;;;14.68;100.00
69848;BME280;57143;55.940;37.496;2023-08-24T08:25:04;99167.00;;;14.90;100.00
69848;BME280;57143;55.940;37.496;2023-08-24T08:27:32;99172.44;;;14.90;100.00
69848;BME280;57143;55.940;37.496;2023-08-24T08:30:00;99160.00;;;14.99;100.00
69848;BME280;57143;55.940;37.496;2023-08-24T08:32:32;99175.66;;;15.14;100.00
69848;BME280;57143;55.940;37.496;2023-08-24T08:34:59;99170.25;;;15.19;100.00
69848;BME280;57143;55.940;37.496;2023-08-24T08:37:30;99176.25;;;15.47;100.00
69848;BME280;57143;55.940;37.496;2023-08-24T08:39:57;99175.66;;;15.77;100.00
69848;BME280;57143;55.940;37.496;2023-08-24T08:42:24;99182.31;;;15.91;100.00
69848;BME280;57143;55.940;37.496;2023-08-24T08:44:53;99186.84;;;16.22;100.00
69848;BME280;57143;55.940;37.496;2023-08-24T08:47:21;99188.97;;;16.67;100.00
69848;BME280;57143;55.940;37.496;2023-08-24T08:49:49;99199.97;;;16.92;100.00
69848;BME280;57143;55.940;37.496;2023-08-24T08:52:17;99200.72;;;16.72;100.00
69848;BME280;57143;55.940;37.496;2023-08-24T08:54:45;99212.50;;;16.73;100.00
69848;BME280;57143;55.940;37.496;2023-08-24T08:57:14;99198.78;;;16.63;100.00
69848;BME280;57143;55.940;37.496;2023-08-24T08:59:42;99193.75;;;16.45;100.00
69848;BME280;57143;55.940;37.496;2023-08-24T09:02:13;99218.50;;;16.65;100.00
69848;BME280;57143;55.940;37.496;2023-08-24T09:04:41;99230.25;;;16.60;100.00
69848;BME280;57143;55.940;37.496;2023-08-24T09:07:13;99227.47;;;16.03;100.00
69848;BME280;57143;55.940;37.496;2023-08-24T09:09:41;99200.97;;;16.04;100.00
69848;BME280;57143;55.940;37.496;2023-08-24T09:12:10;99202.06;;;16.03;100.00
69848;BME280;57143;55.940;37.496;2023-08-24T09:14:37;99216.88;;;16.17;100.00
69848;BME280;57143;55.940;37.496;2023-08-24T09:17:05;99222.25;;;16.02;100.00
69848;BME280;57143;55.940;37.496;2023-08-24T09:19:34;99222.69;;;15.47;100.00
69848;BME280;57143;55.940;37.496;2023-08-24T09:22:04;99221.25;;;15.71;100.00
69848;BME280;57143;55.940;37.496;2023-08-24T09:24:31;99210.47;;;15.55;100.00
69848;BME280;57143;55.940;37.496;2023-08-24T09:26:59;99214.28;;;15.90;100.00
69848;BME280;57143;55.940;37.496;2023-08-24T09:29:36;99223.16;;;15.71;100.00
69848;BME280;57143;55.940;37.496;2023-08-24T09:32:04;99222.72;;;15.84;100.00
69848;BME280;57143;55.940;37.496;2023-08-24T09:34:36;99215.56;;;15.83;100.00
69848;BME280;57143;55.940;37.496;2023-08-24T09:37:03;99215.81;;;15.76;100.00
69848;BME280;57143;55.940;37.496;2023-08-24T09:39:31;99225.22;;;15.90;100.00
69848;BME280;57143;55.940;37.496;2023-08-24T09:42:00;99225.31;;;15.69;100.00
69848;BME280;57143;55.940;37.496;2023-08-24T09:44:30;99231.53;;;15.59;100.00
69848;BME280;57143;55.940;37.496;2023-08-24T09:46:57;99240.09;;;15.41;100.00
69848;BME280;57143;55.940;37.496;2023-08-24T09:49:25;99230.63;;;15.49;100.00
69848;BME280;57143;55.940;37.496;2023-08-24T09:51:55;99214.50;;;15.47;100.00
69848;BME280;57143;55.940;37.496;2023-08-24T09:54:26;99208.72;;;15.44;100.00
69848;BME280;57143;55.940;37.496;2023-08-24T09:56:58;99209.94;;;15.31;100.00
69848;BME280;57143;55.940;37.496;2023-08-24T09:59:27;99218.19;;;15.36;100.00
69848;BME280;57143;55.940;37.496;2023-08-24T10:01:57;99221.19;;;15.35;100.00
69848;BME280;57143;55.940;37.496;2023-08-24T10:04:30;99211.25;;;15.50;100.00
69848;BME280;57143;55.940;37.496;2023-08-24T10:07:04;99223.41;;;15.69;100.00
69848;BME280;57143;55.940;37.496;2023-08-24T10:09:38;99224.97;;;15.60;100.00
69848;BME280;57143;55.940;37.496;2023-08-24T10:12:08;99218.56;;;15.45;100.00
69848;BME280;57143;55.940;37.496;2023-08-24T10:14:41;99228.06;;;15.74;100.00
69848;BME280;57143;55.940;37.496;2023-08-24T10:17:13;99171.09;;;15.51;100.00
69848;BME280;57143;55.940;37.496;2023-08-24T10:19:42;99231.84;;;16.04;100.00
69848;BME280;57143;55.940;37.496;2023-08-24T10:22:11;99247.00;;;16.22;100.00
69848;BME280;57143;55.940;37.496;2023-08-24T10:24:39;99244.94;;;16.44;100.00
69848;BME280;57143;55.940;37.496;2023-08-24T10:27:09;99253.94;;;16.45;100.00
69848;BME280;57143;55.940;37.496;2023-08-24T10:29:40;99259.94;;;16.42;100.00
69848;BME280;57143;55.940;37.496;2023-08-24T10:32:08;99249.78;;;16.84;100.00
69848;BME280;57143;55.940;37.496;2023-08-24T10:34:37;99266.81;;;17.06;100.00
69848;BME280;57143;55.940;37.496;2023-08-24T10:37:08;99261.88;;;17.08;100.00
69848;BME280;57143;55.940;37.496;2023-08-24T10:39:37;99263.31;;;17.30;100.00
69848;BME280;57143;55.940;37.496;2023-08-24T10:42:10;99267.38;;;17.18;100.00
69848;BME280;57143;55.940;37.496;2023-08-24T10:44:43;99261.31;;;16.91;100.00
69848;BME280;57143;55.940;37.496;2023-08-24T10:47:15;99272.88;;;17.18;100.00
69848;BME280;57143;55.940;37.496;2023-08-24T10:49:44;99249.25;;;17.02;100.00
69848;BME280;57143;55.940;37.496;2023-08-24T10:52:32;99283.50;;;17.04;100.00
69848;BME280;57143;55.940;37.496;2023-08-24T10:55:03;99269.97;;;16.73;100.00
69848;BME280;57143;55.940;37.496;2023-08-24T10:57:36;99270.00;;;16.78;100.00
69848;BME280;57143;55.940;37.496;2023-08-24T11:00:05;99275.25;;;16.89;100.00
69848;BME280;57143;55.940;37.496;2023-08-24T11:02:45;99256.59;;;16.81;100.00
69848;BME280;57143;55.940;37.496;2023-08-24T11:05:18;99268.22;;;16.52;100.00
69848;BME280;57143;55.940;37.496;2023-08-24T11:07:54;99246.44;;;16.72;100.00
69848;BME280;57143;55.940;37.496;2023-08-24T11:10:23;99276.59;;;16.82;100.00
69848;BME280;57143;55.940;37.496;2023-08-24T11:13:10;99274.63;;;16.72;100.00
69848;BME280;57143;55.940;37.496;2023-08-24T11:15:40;99282.47;;;16.54;100.00
69848;BME280;57143;55.940;37.496;2023-08-24T11:18:15;99286.66;;;16.66;100.00
69848;BME280;57143;55.940;37.496;2023-08-24T11:20:49;99262.06;;;16.81;100.00
69848;BME280;57143;55.940;37.496;2023-08-24T11:23:17;99290.91;;;17.09;100.00
69848;BME280;57143;55.940;37.496;2023-08-24T11:25:45;99296.38;;;17.04;100.00
69848;BME280;57143;55.940;37.496;2023-08-24T11:28:17;99298.38;;;17.28;100.00
69848;BME280;57143;55.940;37.496;2023-08-24T11:30:45;99301.38;;;17.27;100.00
69848;BME280;57143;55.940;37.496;2023-08-24T11:33:13;99295.41;;;17.50;100.00
69848;BME280;57143;55.940;37.496;2023-08-24T11:35:42;99302.28;;;17.78;100.00
69848;BME280;57143;55.940;37.496;2023-08-24T11:38:11;99309.13;;;17.60;100.00
69848;BME280;57143;55.940;37.496;2023-08-24T11:40:39;99311.63;;;17.67;100.00
69848;BME280;57143;55.940;37.496;2023-08-24T11:43:06;99295.09;;;17.42;100.00
69848;BME280;57143;55.940;37.496;2023-08-24T11:45:34;99306.41;;;17.65;100.00
69848;BME280;57143;55.940;37.496;2023-08-24T11:48:04;99312.72;;;17.91;100.00
69848;BME280;57143;55.940;37.496;2023-08-24T11:50:32;99310.53;;;18.03;100.00
69848;BME280;57143;55.940;37.496;2023-08-24T11:53:01;99320.94;;;18.11;100.00
69848;BME280;57143;55.940;37.496;2023-08-24T11:55:29;99314.34;;;17.62;100.00
69848;BME280;57143;55.940;37.496;2023-08-24T11:57:57;99312.16;;;17.99;100.00
69848;BME280;57143;55.940;37.496;2023-08-24T12:00:26;99320.13;;;18.20;100.00
69848;BME280;57143;55.940;37.496;2023-08-24T12:02:53;99308.59;;;17.93;100.00
69848;BME280;57143;55.940;37.496;2023-08-24T12:05:21;99282.56;;;17.91;100.00
69848;BME280;57143;55.940;37.496;2023-08-24T12:07:49;99308.59;;;17.98;100.00
69848;BME280;57143;55.940;37.496;2023-08-24T12:10:18;99314.91;;;18.24;100.00
69848;BME280;57143;55.940;37.496;2023-08-24T12:12:46;99323.69;;;18.01;100.00
69848;BME280;57143;55.940;37.496;2023-08-24T12:15:18;99323.38;;;18.17;100.00
69848;BME280;57143;55.940;37.496;2023-08-24T12:17:46;99312.97;;;18.19;100.00
69848;BME280;57143;55.940;37.496;2023-08-24T12:20:18;99327.50;;;17.95;100.00
69848;BME280;57143;55.940;37.496;2023-08-24T12:22:51;99308.59;;;17.73;100.00
69848;BME280;57143;55.940;37.496;2023-08-24T12:25:21;99333.25;;;17.53;100.00
69848;BME280;57143;55.940;37.496;2023-08-24T12:27:50;99327.50;;;17.70;100.00
69848;BME280;57143;55.940;37.496;2023-08-24T12:30:18;99318.13;;;17.46;100.00
69848;BME280;57143;55.940;37.496;2023-08-24T12:32:45;99321.13;;;17.44;100.00
69848;BME280;57143;55.940;37.496;2023-08-24T12:35:14;99306.19;;;16.95;100.00
69848;BME280;57143;55.940;37.496;2023-08-24T12:37:42;99303.03;;;17.38;100.00
69848;BME280;57143;55.940;37.496;2023-08-24T12:40:09;99292.63;;;17.45;100.00
69848;BME280;57143;55.940;37.496;2023-08-24T12:42:37;99299.53;;;17.58;100.00
69848;BME280;57143;55.940;37.496;2023-08-24T12:45:25;99296.47;;;17.29;100.00
69848;BME280;57143;55.940;37.496;2023-08-24T12:47:55;99288.53;;;17.43;100.00